Time;durP1;ratioP1;P1;durP2;ratioP2;P2;SDS_P1;SDS_P2;PMS_P1;PMS_P2;Temp;Humidity;BMP_temperature;BMP_pressure;BME280_temperature;BME280_humidity;BME280_pressure;Samples;Min_cycle;Max_cycle;Signal;HPM_P1;HPM_P2
2024/01/07 00:01:33;;;;;;;10.13;4.13;;;0.70;99.90;;;;;;4130307;28;20057;-81
2024/01/07 00:03:34;;;;;;;9.45;4.38;;;0.90;99.90;;;;;;4129120;28;20049;-81
2024/01/07 00:05:43;;;;;;;8.50;3.53;;;-0.90;99.90;;;;;;4128645;28;20043;-81
2024/01/07 00:07:57;;;;;;;8.10;3.40;;;0.00;99.90;;;;;;4128403;28;20046;-81
2024/01/07 00:09:58;;;;;;;9.75;3.72;;;1.10;99.90;;;;;;4137413;28;20042;-81
2024/01/07 00:11:59;;;;;;;7.35;3.60;;;0.50;99.90;;;;;;4144221;28;20038;-81
2024/01/07 00:14:02;;;;;;;6.53;4.07;;;-0.10;99.90;;;;;;4144513;28;20105;-81
2024/01/07 00:16:05;;;;;;;4.75;2.83;;;0.00;99.90;;;;;;4144031;28;20061;-81
2024/01/07 00:18:07;;;;;;;8.65;4.05;;;-0.10;99.90;;;;;;4145171;28;20077;-81
2024/01/07 00:20:08;;;;;;;8.98;4.22;;;-0.20;99.90;;;;;;4144996;28;20085;-81
2024/01/07 00:22:10;;;;;;;6.53;3.40;;;0.00;99.90;;;;;;4132960;28;20082;-81
2024/01/07 00:24:15;;;;;;;6.70;3.55;;;0.00;99.90;;;;;;4144508;28;20416;-81
2024/01/07 00:26:21;;;;;;;7.30;3.70;;;-0.10;99.90;;;;;;4127795;28;20062;-81
2024/01/07 00:28:31;;;;;;;10.25;3.50;;;0.90;99.90;;;;;;4144802;28;20050;-81
2024/01/07 00:30:32;;;;;;;9.63;3.90;;;-0.10;99.90;;;;;;4111322;29;20420;-81
2024/01/07 00:32:37;;;;;;;8.00;4.05;;;0.70;99.90;;;;;;4144224;28;20104;-81
2024/01/07 00:34:39;;;;;;;10.98;4.13;;;1.00;99.90;;;;;;4126706;28;20054;-81
2024/01/07 00:36:42;;;;;;;10.07;3.83;;;0.30;99.90;;;;;;4127875;28;20051;-81
2024/01/07 00:38:49;;;;;;;7.43;3.35;;;0.80;99.90;;;;;;4144474;28;20061;-82
2024/01/07 00:40:50;;;;;;;7.97;3.67;;;-0.90;99.90;;;;;;4146877;28;20101;-81
2024/01/07 00:42:58;;;;;;;9.38;3.38;;;-0.50;99.90;;;;;;4145998;28;20082;-82
2024/01/07 00:45:07;;;;;;;9.10;3.63;;;0.80;99.90;;;;;;4146129;28;20053;-83
2024/01/07 00:47:07;;;;;;;7.40;3.58;;;0.00;99.90;;;;;;4146295;28;20050;-83
2024/01/07 00:49:08;;;;;;;8.48;3.80;;;-0.30;99.90;;;;;;4146292;28;20034;-83
2024/01/07 00:51:12;;;;;;;9.80;3.90;;;0.70;99.90;;;;;;4143897;28;20101;-83
2024/01/07 00:53:15;;;;;;;8.18;3.80;;;0.60;99.90;;;;;;4146280;28;20054;-82
2024/01/07 00:55:16;;;;;;;8.60;4.13;;;0.90;99.90;;;;;;4146486;28;20046;-83
2024/01/07 00:57:18;;;;;;;8.32;4.25;;;0.00;99.90;;;;;;4145542;28;20053;-82
2024/01/07 00:59:20;;;;;;;9.10;4.45;;;1.00;99.90;;;;;;4144142;28;20065;-82
2024/01/07 01:01:22;;;;;;;7.25;3.75;;;0.40;99.90;;;;;;4122978;28;20047;-81
2024/01/07 01:03:28;;;;;;;8.55;4.00;;;0.40;99.90;;;;;;4148433;28;20108;-81
2024/01/07 01:05:30;;;;;;;10.25;4.45;;;0.70;99.90;;;;;;4145445;28;20038;-81
2024/01/07 01:07:30;;;;;;;7.68;4.15;;;0.40;99.90;;;;;;4146701;28;20049;-81
2024/01/07 01:09:34;;;;;;;9.95;3.88;;;0.70;99.90;;;;;;4147573;28;20046;-82
2024/01/07 01:11:37;;;;;;;9.05;3.60;;;0.00;99.90;;;;;;4146470;28;20046;-82
2024/01/07 01:13:38;;;;;;;8.48;3.53;;;0.70;99.90;;;;;;4147196;28;20042;-82
2024/01/07 01:15:48;;;;;;;6.90;3.38;;;0.50;99.90;;;;;;4146834;28;20051;-82
2024/01/07 01:17:51;;;;;;;7.70;4.18;;;0.80;99.90;;;;;;4146331;28;20038;-82
2024/01/07 01:19:52;;;;;;;6.57;3.35;;;0.70;99.90;;;;;;4145724;28;20050;-82
2024/01/07 01:21:56;;;;;;;7.70;3.85;;;-0.30;99.90;;;;;;4130167;28;20062;-82
2024/01/07 01:24:05;;;;;;;9.02;3.65;;;0.50;99.90;;;;;;4147910;28;20065;-81
2024/01/07 01:26:25;;;;;;;6.03;3.45;;;0.10;99.90;;;;;;4148126;28;20042;-81
2024/01/07 01:28:26;;;;;;;8.07;3.63;;;-0.10;99.90;;;;;;4148690;28;20042;-82
2024/01/07 01:30:31;;;;;;;7.35;3.33;;;-0.40;99.90;;;;;;4147007;28;20057;-81
2024/01/07 01:32:42;;;;;;;7.07;3.30;;;-0.20;99.90;;;;;;4145700;28;20054;-81
2024/01/07 01:34:43;;;;;;;9.50;3.17;;;-0.40;99.90;;;;;;4147751;28;20086;-82
2024/01/07 01:36:56;;;;;;;5.85;3.38;;;-0.10;99.90;;;;;;4146805;28;20843;-82
2024/01/07 01:39:04;;;;;;;7.40;3.13;;;1.00;99.90;;;;;;4147795;28;20057;-82
2024/01/07 01:41:12;;;;;;;9.38;3.72;;;1.10;99.90;;;;;;4130986;28;20042;-82
2024/01/07 01:43:27;;;;;;;6.10;3.55;;;0.60;99.90;;;;;;4131022;28;20078;-82
2024/01/07 01:45:31;;;;;;;8.25;3.15;;;-0.30;99.90;;;;;;4132779;28;20070;-82
2024/01/07 01:47:33;;;;;;;7.65;3.22;;;0.40;99.90;;;;;;4131401;28;20077;-81
2024/01/07 01:49:36;;;;;;;7.63;3.80;;;0.00;99.90;;;;;;4130925;28;20054;-82
2024/01/07 01:51:52;;;;;;;5.63;2.65;;;0.40;99.90;;;;;;4140141;28;20049;-82
2024/01/07 01:54:02;;;;;;;5.88;2.78;;;1.20;99.90;;;;;;4146550;28;20098;-82
2024/01/07 01:56:20;;;;;;;10.23;4.05;;;1.00;99.90;;;;;;4148298;28;20054;-81
2024/01/07 01:58:28;;;;;;;8.07;3.10;;;0.60;99.90;;;;;;4150717;28;20046;-81
2024/01/07 02:00:37;;;;;;;6.20;3.13;;;0.30;99.90;;;;;;4146784;28;20454;-81
2024/01/07 02:02:44;;;;;;;6.93;3.58;;;0.40;99.90;;;;;;4149678;28;20085;-80
2024/01/07 02:04:47;;;;;;;6.60;3.55;;;0.40;99.90;;;;;;4136549;28;20131;-81
2024/01/07 02:06:48;;;;;;;6.18;2.97;;;-0.20;99.90;;;;;;4150357;28;20046;-81
2024/01/07 02:08:51;;;;;;;10.55;3.15;;;0.50;99.90;;;;;;4149929;28;20046;-81
2024/01/07 02:11:15;;;;;;;6.93;3.13;;;0.40;99.90;;;;;;4132639;28;20073;-82
2024/01/07 02:13:15;;;;;;;6.18;2.55;;;-0.20;99.90;;;;;;4148479;28;20074;-82
2024/01/07 02:15:17;;;;;;;8.25;2.92;;;0.90;99.90;;;;;;4149198;28;20102;-81
2024/01/07 02:17:19;;;;;;;6.25;2.85;;;0.50;99.90;;;;;;4147246;28;20073;-81
2024/01/07 02:19:22;;;;;;;6.00;2.50;;;-0.40;99.90;;;;;;4146060;28;20050;-81
2024/01/07 02:21:23;;;;;;;7.57;3.13;;;0.80;99.90;;;;;;4145964;28;20125;-81
2024/01/07 02:23:25;;;;;;;4.80;2.42;;;0.30;99.90;;;;;;4146392;28;20034;-81
2024/01/07 02:25:26;;;;;;;6.28;3.25;;;-0.50;99.90;;;;;;4146536;28;20073;-81
2024/01/07 02:27:26;;;;;;;7.50;3.08;;;0.10;99.90;;;;;;4145991;28;20077;-82
2024/01/07 02:29:33;;;;;;;6.05;2.97;;;-0.20;99.90;;;;;;4146384;28;20077;-82
2024/01/07 02:31:40;;;;;;;4.85;2.50;;;0.90;99.90;;;;;;4146272;28;20047;-81
2024/01/07 02:33:41;;;;;;;6.03;2.88;;;-0.10;99.90;;;;;;4145949;28;20098;-82
2024/01/07 02:35:42;;;;;;;7.40;2.78;;;0.40;99.90;;;;;;4146583;28;20046;-82
2024/01/07 02:37:48;;;;;;;7.78;2.75;;;0.30;99.90;;;;;;4132662;28;20057;-82
2024/01/07 02:39:49;;;;;;;5.00;2.33;;;0.60;99.90;;;;;;4144168;28;20073;-81
2024/01/07 02:41:56;;;;;;;5.80;2.83;;;-0.20;99.90;;;;;;4150292;28;20050;-81
2024/01/07 02:44:05;;;;;;;6.95;2.88;;;-0.30;99.90;;;;;;4149531;28;20091;-82
2024/01/07 02:46:07;;;;;;;6.50;3.20;;;-0.20;99.90;;;;;;4149200;28;20509;-81
2024/01/07 02:48:14;;;;;;;4.35;2.40;;;-0.30;99.90;;;;;;4132346;28;20058;-80
2024/01/07 02:50:17;;;;;;;4.95;2.40;;;-0.60;99.90;;;;;;4158319;28;20017;-82
2024/01/07 02:52:20;;;;;;;3.97;2.10;;;1.00;99.90;;;;;;4166385;28;20053;-82
2024/01/07 02:54:33;;;;;;;4.25;2.28;;;0.50;99.90;;;;;;4167281;28;20057;-82
2024/01/07 02:56:34;;;;;;;7.82;2.63;;;-0.40;99.90;;;;;;4156182;28;20119;-82
2024/01/07 02:58:37;;;;;;;4.38;2.70;;;-0.30;99.90;;;;;;4132289;28;20125;-82
2024/01/07 03:00:38;;;;;;;5.05;2.00;;;0.60;99.90;;;;;;4130718;28;20050;-82
2024/01/07 03:03:06;;;;;;;6.18;2.53;;;0.00;99.90;;;;;;4114230;28;20158;-82
2024/01/07 03:05:09;;;;;;;6.18;2.65;;;-0.10;99.90;;;;;;4129231;28;20050;-82
2024/01/07 03:07:14;;;;;;;4.43;2.15;;;0.20;99.90;;;;;;4129232;28;20047;-82
2024/01/07 03:09:17;;;;;;;4.25;2.13;;;-0.20;99.90;;;;;;4129092;28;20047;-82
2024/01/07 03:11:27;;;;;;;4.32;2.28;;;0.50;99.90;;;;;;4129097;28;20038;-82
2024/01/07 03:13:29;;;;;;;4.80;2.00;;;-0.60;99.90;;;;;;4129247;28;20105;-82
2024/01/07 03:15:30;;;;;;;5.55;2.03;;;-0.70;99.90;;;;;;4142091;28;20078;-82
2024/01/07 03:17:32;;;;;;;4.60;2.28;;;0.40;99.90;;;;;;4145033;28;20046;-82
2024/01/07 03:19:32;;;;;;;5.78;1.95;;;0.80;99.90;;;;;;4144757;28;20050;-82
2024/01/07 03:21:33;;;;;;;3.70;1.85;;;-0.10;99.90;;;;;;4145038;28;20065;-82
2024/01/07 03:23:36;;;;;;;5.07;1.95;;;0.40;99.90;;;;;;4144665;28;20047;-82
2024/01/07 03:25:47;;;;;;;5.28;1.95;;;0.10;99.90;;;;;;4143416;28;20118;-82
2024/01/07 03:27:49;;;;;;;3.90;2.15;;;0.40;99.90;;;;;;4145067;28;20093;-82
2024/01/07 03:29:54;;;;;;;7.03;2.88;;;0.50;99.90;;;;;;4145143;28;20042;-82
2024/01/07 03:31:57;;;;;;;4.03;1.77;;;1.10;99.90;;;;;;4144916;28;20034;-82
2024/01/07 03:34:00;;;;;;;2.83;1.77;;;-0.20;99.90;;;;;;4143602;28;20042;-82
2024/01/07 03:36:08;;;;;;;4.20;1.95;;;0.60;99.90;;;;;;4144930;28;20078;-82
2024/01/07 03:38:44;;;;;;;7.00;3.65;;;0.90;99.90;;;;;;4145531;28;20073;-82
2024/01/07 03:40:47;;;;;;;5.53;1.77;;;-0.20;99.90;;;;;;4144822;28;20049;-82
2024/01/07 03:42:50;;;;;;;4.05;1.85;;;0.50;99.90;;;;;;4126991;28;20098;-82
2024/01/07 03:44:52;;;;;;;4.40;1.90;;;0.70;99.90;;;;;;4144836;28;20047;-82
2024/01/07 03:47:03;;;;;;;3.88;1.70;;;0.50;99.90;;;;;;4144961;28;20050;-82
2024/01/07 03:49:09;;;;;;;4.30;1.60;;;-0.20;99.90;;;;;;4144270;28;20038;-82
2024/01/07 03:51:12;;;;;;;4.75;1.77;;;0.40;99.90;;;;;;4126851;28;20093;-82
2024/01/07 03:53:17;;;;;;;5.72;1.70;;;0.00;99.90;;;;;;4143885;28;20050;-82
2024/01/07 03:55:18;;;;;;;3.30;1.65;;;0.20;99.90;;;;;;4144202;28;20046;-82
2024/01/07 03:57:19;;;;;;;5.80;2.00;;;-0.40;99.90;;;;;;4150000;28;20077;-82
2024/01/07 03:59:23;;;;;;;3.80;1.80;;;-0.20;99.90;;;;;;4145010;28;20050;-82
2024/01/07 04:01:23;;;;;;;6.72;2.50;;;-0.20;99.90;;;;;;4143406;28;20049;-82
2024/01/07 04:03:32;;;;;;;2.45;1.30;;;0.20;99.90;;;;;;4142913;28;20042;-82
2024/01/07 04:05:49;;;;;;;4.85;1.67;;;1.10;99.90;;;;;;4144242;28;20049;-82
2024/01/07 04:07:49;;;;;;;2.80;1.17;;;-0.20;99.90;;;;;;4142940;28;20046;-82
2024/01/07 04:09:50;;;;;;;3.70;1.67;;;-0.20;99.90;;;;;;4143695;28;20045;-80
2024/01/07 04:11:51;;;;;;;3.75;1.48;;;0.30;99.90;;;;;;4144742;28;20046;-79
2024/01/07 04:13:52;;;;;;;3.13;1.80;;;0.70;99.90;;;;;;4147710;28;20050;-79
2024/01/07 04:15:53;;;;;;;3.85;1.65;;;0.50;99.90;;;;;;4136862;28;20042;-80
2024/01/07 04:17:56;;;;;;;4.88;1.50;;;-0.60;99.90;;;;;;4147545;28;20050;-79
2024/01/07 04:19:58;;;;;;;2.55;1.38;;;-0.20;99.90;;;;;;4146652;28;20069;-79
2024/01/07 04:21:58;;;;;;;5.90;1.75;;;-0.10;99.90;;;;;;4145933;28;20047;-80
2024/01/07 04:24:01;;;;;;;3.33;1.23;;;0.60;99.90;;;;;;4129137;28;20972;-82
2024/01/07 04:26:09;;;;;;;4.78;1.98;;;1.10;99.90;;;;;;4146219;28;20050;-80
2024/01/07 04:28:11;;;;;;;5.03;1.50;;;-0.20;99.90;;;;;;4141110;28;20042;-80
2024/01/07 04:30:13;;;;;;;4.50;1.27;;;-0.20;99.90;;;;;;4146482;28;20049;-80
2024/01/07 04:32:23;;;;;;;3.05;1.67;;;0.40;99.90;;;;;;4147679;28;20054;-80
2024/01/07 04:34:24;;;;;;;3.33;1.48;;;-0.10;99.90;;;;;;4148210;28;20053;-80
2024/01/07 04:36:27;;;;;;;2.85;1.52;;;0.00;99.90;;;;;;4146862;28;20406;-80
2024/01/07 04:38:30;;;;;;;2.53;1.17;;;0.00;99.90;;;;;;4147511;28;20057;-80
2024/01/07 04:40:34;;;;;;;2.00;1.05;;;0.00;99.90;;;;;;4142549;28;20043;-80
2024/01/07 04:42:36;;;;;;;3.13;1.20;;;1.10;99.90;;;;;;4144055;28;20038;-80
2024/01/07 04:44:37;;;;;;;5.32;1.35;;;-0.50;99.90;;;;;;4148309;28;20038;-80
2024/01/07 04:46:47;;;;;;;3.60;1.30;;;0.90;99.90;;;;;;4147939;28;20058;-80
2024/01/07 04:48:50;;;;;;;3.75;1.35;;;0.00;99.90;;;;;;4147108;28;20046;-80
2024/01/07 04:50:51;;;;;;;4.45;1.50;;;0.00;99.90;;;;;;4147940;28;20118;-80
2024/01/07 04:52:51;;;;;;;2.95;1.15;;;0.80;99.90;;;;;;4147534;28;20066;-80
2024/01/07 04:54:56;;;;;;;3.38;1.35;;;0.90;99.90;;;;;;4147898;28;20087;-80
2024/01/07 04:57:04;;;;;;;3.95;1.30;;;-0.20;99.90;;;;;;4148500;28;20054;-80
2024/01/07 04:59:11;;;;;;;2.17;1.25;;;-0.20;99.90;;;;;;4147550;28;20042;-80
2024/01/07 05:01:13;;;;;;;4.80;1.50;;;1.00;99.90;;;;;;4149706;28;20046;-80
2024/01/07 05:03:17;;;;;;;3.78;1.15;;;0.50;99.90;;;;;;4147600;28;20042;-80
2024/01/07 05:05:19;;;;;;;1.77;0.90;;;0.70;99.90;;;;;;4148087;28;20094;-80
2024/01/07 05:07:25;;;;;;;2.58;0.95;;;0.00;99.90;;;;;;4148092;28;20073;-79
2024/01/07 05:09:27;;;;;;;4.05;1.10;;;1.00;99.90;;;;;;4130713;28;20085;-80
2024/01/07 05:11:28;;;;;;;5.03;1.08;;;0.20;99.90;;;;;;4147873;28;20050;-80
2024/01/07 05:13:31;;;;;;;4.72;1.20;;;-0.20;99.90;;;;;;4147316;28;20042;-80
2024/01/07 05:15:33;;;;;;;4.00;1.10;;;-0.20;99.90;;;;;;4147689;28;20130;-80
2024/01/07 05:17:35;;;;;;;2.05;1.00;;;-1.30;99.90;;;;;;4147638;28;20042;-80
2024/01/07 05:19:36;;;;;;;3.15;1.30;;;0.30;99.90;;;;;;4147147;28;20053;-80
2024/01/07 05:21:36;;;;;;;2.00;1.08;;;-0.10;99.90;;;;;;4147274;28;20110;-80
2024/01/07 05:23:39;;;;;;;7.85;1.58;;;-0.20;99.90;;;;;;4146667;28;20057;-80
2024/01/07 05:25:49;;;;;;;2.35;0.90;;;-0.30;99.90;;;;;;4147116;28;20101;-80
2024/01/07 05:28:04;;;;;;;1.67;1.02;;;0.00;99.90;;;;;;4146896;28;20031;-79
2024/01/07 05:30:10;;;;;;;3.13;1.08;;;-0.20;99.90;;;;;;4147914;28;20053;-80
2024/01/07 05:32:12;;;;;;;3.72;1.27;;;-1.20;99.90;;;;;;4147200;28;20042;-80
2024/01/07 05:34:15;;;;;;;5.53;1.25;;;-0.30;99.90;;;;;;4147435;28;20114;-80
2024/01/07 05:36:18;;;;;;;2.17;1.08;;;0.20;99.90;;;;;;4146745;28;20069;-80
2024/01/07 05:38:25;;;;;;;3.10;1.13;;;-0.20;99.90;;;;;;4146173;28;20042;-80
2024/01/07 05:40:32;;;;;;;5.70;1.17;;;-0.60;99.90;;;;;;4162510;28;20105;-80
2024/01/07 05:42:33;;;;;;;3.67;1.05;;;0.00;99.90;;;;;;4147230;28;20057;-80
2024/01/07 05:44:34;;;;;;;1.45;1.00;;;-0.30;99.90;;;;;;4162729;28;20041;-80
2024/01/07 05:46:41;;;;;;;3.83;1.10;;;0.70;99.90;;;;;;4147151;28;20069;-80
2024/01/07 05:48:50;;;;;;;1.10;0.70;;;-0.20;99.90;;;;;;4147109;28;20081;-80
2024/01/07 05:50:52;;;;;;;2.50;1.10;;;-0.30;99.90;;;;;;4147277;28;20054;-80
2024/01/07 05:52:54;;;;;;;1.52;0.70;;;0.60;99.90;;;;;;4147009;28;20042;-80
2024/01/07 05:55:00;;;;;;;2.33;0.95;;;0.60;99.90;;;;;;4147118;28;20080;-79
2024/01/07 05:57:06;;;;;;;4.03;1.00;;;-0.20;99.90;;;;;;4147109;28;20054;-80
2024/01/07 05:59:08;;;;;;;1.50;0.75;;;0.40;99.90;;;;;;4146566;28;20068;-80
2024/01/07 06:01:11;;;;;;;2.75;1.23;;;0.20;99.90;;;;;;4132696;28;20039;-80
2024/01/07 06:03:12;;;;;;;1.73;1.10;;;0.10;99.90;;;;;;4141683;28;20129;-80
2024/01/07 06:05:21;;;;;;;5.70;1.50;;;1.00;99.90;;;;;;4146145;28;20487;-80
2024/01/07 06:07:23;;;;;;;5.38;0.70;;;-0.70;99.90;;;;;;4147063;28;20045;-80
2024/01/07 06:09:25;;;;;;;2.78;1.00;;;-0.20;99.90;;;;;;4147083;28;20076;-80
2024/01/07 06:11:28;;;;;;;2.70;0.98;;;1.00;99.90;;;;;;4146724;28;20106;-80
2024/01/07 06:13:37;;;;;;;2.30;0.85;;;0.00;99.90;;;;;;4145725;28;20042;-80
2024/01/07 06:15:53;;;;;;;4.53;1.20;;;0.50;99.90;;;;;;4146936;28;20046;-80
2024/01/07 06:17:54;;;;;;;3.42;1.27;;;-1.00;99.90;;;;;;4146398;28;20522;-80
2024/01/07 06:20:05;;;;;;;5.72;1.10;;;-0.30;99.90;;;;;;4146861;28;20053;-80
2024/01/07 06:22:07;;;;;;;3.70;1.42;;;-0.10;99.90;;;;;;4145822;28;20059;-80
2024/01/07 06:24:09;;;;;;;2.50;0.90;;;-0.40;99.90;;;;;;4146916;28;20038;-80
2024/01/07 06:26:10;;;;;;;3.10;0.90;;;0.20;99.90;;;;;;4146826;28;20043;-80
2024/01/07 06:28:12;;;;;;;2.85;1.05;;;-1.20;99.90;;;;;;4113119;29;20050;-80
2024/01/07 06:30:14;;;;;;;2.25;1.10;;;0.60;99.90;;;;;;4145363;28;20046;-80
2024/01/07 06:32:17;;;;;;;2.47;0.90;;;-0.30;99.90;;;;;;4144817;28;20042;-80
2024/01/07 06:34:18;;;;;;;2.45;1.33;;;0.80;99.90;;;;;;4144868;28;20053;-80
2024/01/07 06:36:20;;;;;;;2.95;1.20;;;1.30;99.90;;;;;;4142010;28;20110;-80
2024/01/07 06:38:21;;;;;;;2.97;1.02;;;-0.30;99.90;;;;;;4145443;28;20054;-80
2024/01/07 06:40:23;;;;;;;3.13;1.30;;;0.00;99.90;;;;;;4145540;28;20049;-80
2024/01/07 06:42:27;;;;;;;2.45;0.90;;;0.00;99.90;;;;;;4144565;28;20520;-80
2024/01/07 06:44:29;;;;;;;1.83;1.08;;;-0.50;99.90;;;;;;4144912;28;20070;-79
2024/01/07 06:46:30;;;;;;;3.03;0.93;;;-1.10;99.90;;;;;;4145109;28;20043;-80
2024/01/07 06:48:33;;;;;;;1.35;0.90;;;0.60;99.90;;;;;;4142568;28;20077;-80
2024/01/07 06:50:35;;;;;;;1.85;1.30;;;1.20;99.90;;;;;;4145312;28;20407;-79
2024/01/07 06:52:36;;;;;;;4.90;1.25;;;-0.20;99.90;;;;;;4146762;28;20042;-80
2024/01/07 06:54:43;;;;;;;3.47;1.13;;;1.00;99.90;;;;;;4132694;28;20531;-80
2024/01/07 06:56:49;;;;;;;3.03;1.17;;;-1.00;99.90;;;;;;4161838;28;20034;-80
2024/01/07 06:58:51;;;;;;;1.40;0.88;;;0.40;99.90;;;;;;4146400;28;20050;-80
2024/01/07 07:00:57;;;;;;;1.50;0.82;;;-0.40;99.90;;;;;;4146623;28;20042;-79
2024/01/07 07:03:06;;;;;;;3.88;1.00;;;-0.30;99.90;;;;;;4129194;28;20058;-80
2024/01/07 07:05:18;;;;;;;2.03;1.08;;;0.30;99.90;;;;;;4147118;28;20066;-80
2024/01/07 07:07:36;;;;;;;2.50;1.00;;;0.00;99.90;;;;;;4146399;28;20046;-80
2024/01/07 07:09:39;;;;;;;3.00;1.05;;;0.20;99.90;;;;;;4146484;28;20042;-80
2024/01/07 07:11:39;;;;;;;2.38;0.90;;;-0.60;99.90;;;;;;4146630;28;20042;-80
2024/01/07 07:13:40;;;;;;;1.15;0.60;;;-0.40;99.90;;;;;;4144359;28;20091;-79
2024/01/07 07:15:41;;;;;;;2.58;0.90;;;-0.30;99.90;;;;;;4150416;28;20053;-80
2024/01/07 07:17:50;;;;;;;2.35;1.08;;;-0.30;99.90;;;;;;4163053;28;20105;-80
2024/01/07 07:19:51;;;;;;;;;;;-0.30;99.90;;;;;;4163884;28;20052;-80
2024/01/07 07:21:51;;;;;;;2.00;0.65;;;-0.50;99.90;;;;;;4151099;28;19926;-79
2024/01/07 07:23:54;;;;;;;3.17;0.98;;;-0.80;99.90;;;;;;4147055;28;20051;-80
2024/01/07 07:25:56;;;;;;;2.00;1.00;;;-0.40;99.90;;;;;;4146659;28;20093;-80
2024/01/07 07:28:11;;;;;;;3.05;0.90;;;-0.60;99.90;;;;;;4146431;28;20064;-80
2024/01/07 07:30:12;;;;;;;4.00;0.82;;;0.20;99.90;;;;;;4135629;28;20054;-80
2024/01/07 07:32:25;;;;;;;1.75;0.75;;;-0.70;99.90;;;;;;4137982;28;20069;-79
2024/01/07 07:34:27;;;;;;;1.85;0.90;;;-0.40;99.90;;;;;;4149128;28;20065;-80
2024/01/07 07:36:42;;;;;;;2.08;1.40;;;-1.40;99.90;;;;;;4147514;28;20128;-80
2024/01/07 07:38:45;;;;;;;2.90;1.02;;;-0.50;99.90;;;;;;4148190;28;20101;-81
2024/01/07 07:40:53;;;;;;;2.63;0.80;;;-0.40;99.90;;;;;;4147165;28;20042;-79
2024/01/07 07:42:55;;;;;;;2.83;0.88;;;-0.10;99.90;;;;;;4114663;28;20039;-80
2024/01/07 07:44:58;;;;;;;1.55;1.08;;;0.10;99.90;;;;;;4148166;28;20053;-80
2024/01/07 07:47:04;;;;;;;1.30;1.00;;;-0.90;99.90;;;;;;4147480;28;20042;-80
2024/01/07 07:49:40;;;;;;;2.53;1.40;;;0.10;99.90;;;;;;4146879;28;20054;-80
2024/01/07 07:51:46;;;;;;;2.30;0.98;;;-0.70;99.90;;;;;;4146608;28;20039;-80
2024/01/07 07:53:55;;;;;;;1.60;1.02;;;0.60;99.90;;;;;;4146264;28;20552;-80
2024/01/07 07:56:02;;;;;;;;;;;0.30;99.90;;;;;;4129956;28;20077;-80
2024/01/07 07:58:16;;;;;;;1.75;0.82;;;-0.60;99.90;;;;;;4147046;28;19917;-80
2024/01/07 08:00:18;;;;;;;2.75;1.08;;;0.30;99.90;;;;;;4145390;28;20116;-80
2024/01/07 08:02:38;;;;;;;3.22;1.10;;;-0.50;99.90;;;;;;4146579;28;20042;-80
2024/01/07 08:04:41;;;;;;;1.75;1.13;;;-0.50;99.90;;;;;;4146911;28;20050;-80
2024/01/07 08:06:49;;;;;;;1.60;1.00;;;0.10;99.90;;;;;;4129207;28;20875;-80
2024/01/07 08:08:55;;;;;;;2.00;0.93;;;0.50;99.90;;;;;;4146729;28;20046;-80
2024/01/07 08:10:56;;;;;;;5.25;0.90;;;-1.20;99.90;;;;;;4146755;28;20034;-80
2024/01/07 08:12:59;;;;;;;2.60;2.10;;;0.70;99.90;;;;;;4146572;28;20038;-80
2024/01/07 08:15:07;;;;;;;2.25;0.85;;;0.40;99.90;;;;;;4146103;28;20047;-80
2024/01/07 08:17:10;;;;;;;2.20;0.90;;;-0.30;99.90;;;;;;4146469;28;20053;-80
2024/01/07 08:19:11;;;;;;;1.83;0.70;;;-0.40;99.90;;;;;;4145983;28;20477;-80
2024/01/07 08:21:12;;;;;;;1.15;0.82;;;-0.40;99.90;;;;;;4143904;28;20062;-80
2024/01/07 08:23:39;;;;;;;6.10;1.30;;;0.20;99.90;;;;;;4145883;28;20107;-80
2024/01/07 08:25:44;;;;;;;1.95;1.00;;;-0.40;99.90;;;;;;4145634;28;20050;-80
2024/01/07 08:27:47;;;;;;;2.38;1.45;;;1.00;99.90;;;;;;4144866;28;20050;-80
2024/01/07 08:29:49;;;;;;;1.92;1.13;;;-0.40;99.90;;;;;;4145169;28;20507;-80
2024/01/07 08:31:49;;;;;;;2.05;1.00;;;1.00;99.90;;;;;;4144760;28;20038;-80
2024/01/07 08:33:54;;;;;;;3.80;1.00;;;-0.90;99.90;;;;;;4144791;28;20077;-80
2024/01/07 08:35:55;;;;;;;2.60;1.10;;;-0.30;99.90;;;;;;4144875;28;20053;-80
2024/01/07 08:37:59;;;;;;;2.17;1.30;;;-0.30;99.90;;;;;;4144210;28;20054;-80
2024/01/07 08:40:00;;;;;;;2.90;1.00;;;-0.30;99.90;;;;;;4144172;28;20062;-80
2024/01/07 08:42:03;;;;;;;4.47;0.93;;;0.30;99.90;;;;;;4143657;28;20050;-80
2024/01/07 08:44:04;;;;;;;1.63;0.85;;;-0.30;99.90;;;;;;4127427;28;20752;-80
2024/01/07 08:46:07;;;;;;;2.40;1.30;;;-0.30;99.90;;;;;;4143575;28;20101;-80
2024/01/07 08:48:08;;;;;;;3.33;0.95;;;-0.10;99.90;;;;;;4144075;28;20510;-80
2024/01/07 08:50:12;;;;;;;4.18;1.00;;;0.40;99.90;;;;;;4143606;28;20065;-80
2024/01/07 08:52:13;;;;;;;3.00;0.98;;;0.70;99.90;;;;;;4144364;28;20073;-80
2024/01/07 08:54:22;;;;;;;5.78;1.23;;;0.60;99.90;;;;;;4144254;28;20156;-80
2024/01/07 08:56:26;;;;;;;1.45;1.23;;;1.30;99.90;;;;;;4144767;28;20094;-80
2024/01/07 08:58:41;;;;;;;2.50;1.00;;;1.20;99.90;;;;;;4143980;28;20038;-80
2024/01/07 09:00:43;;;;;;;2.92;1.23;;;0.80;99.90;;;;;;4147514;28;20038;-80
2024/01/07 09:02:46;;;;;;;2.22;1.10;;;0.00;99.90;;;;;;4130511;28;20058;-80
2024/01/07 09:04:54;;;;;;;2.17;1.10;;;0.70;99.90;;;;;;4146942;28;20102;-80
2024/01/07 09:06:55;;;;;;;3.15;1.75;;;0.50;99.90;;;;;;4147573;28;20046;-80
2024/01/07 09:08:58;;;;;;;1.88;0.80;;;0.70;99.90;;;;;;4146967;28;20053;-80
2024/01/07 09:11:06;;;;;;;3.22;1.00;;;-0.10;99.90;;;;;;4146939;28;20046;-80
2024/01/07 09:13:06;;;;;;;2.35;1.20;;;0.00;99.90;;;;;;4145988;28;20143;-80
2024/01/07 09:15:08;;;;;;;1.40;1.00;;;0.00;99.90;;;;;;4129006;28;20046;-80
2024/01/07 09:17:12;;;;;;;1.98;1.15;;;0.20;99.90;;;;;;4146581;28;20052;-80
2024/01/07 09:19:20;;;;;;;3.88;1.20;;;1.30;99.90;;;;;;4146468;28;20065;-80
2024/01/07 09:21:22;;;;;;;2.40;1.33;;;0.00;99.90;;;;;;4146166;28;20070;-80
2024/01/07 09:23:36;;;;;;;2.53;1.10;;;0.00;99.90;;;;;;4146497;28;20092;-79
2024/01/07 09:25:37;;;;;;;1.55;0.93;;;0.10;99.90;;;;;;4146262;28;20130;-80
2024/01/07 09:27:38;;;;;;;4.90;1.25;;;1.60;99.90;;;;;;4146281;28;20035;-80
2024/01/07 09:29:46;;;;;;;6.72;1.30;;;0.10;99.90;;;;;;4146281;28;20046;-80
2024/01/07 09:31:47;;;;;;;1.70;1.10;;;1.60;99.90;;;;;;4130627;28;20043;-80
2024/01/07 09:33:48;;;;;;;3.83;1.30;;;-0.20;99.90;;;;;;4130588;28;20061;-79
2024/01/07 09:35:56;;;;;;;2.20;1.30;;;0.10;99.90;;;;;;4129798;28;20049;-79
2024/01/07 09:38:08;;;;;;;2.42;1.13;;;0.20;99.90;;;;;;4134087;28;20054;-79
2024/01/07 09:40:11;;;;;;;1.83;1.33;;;0.30;99.90;;;;;;4136083;28;20034;-80
2024/01/07 09:42:22;;;;;;;2.60;1.20;;;0.20;99.90;;;;;;4145435;28;20491;-80
2024/01/07 09:44:25;;;;;;;1.50;1.00;;;1.10;99.90;;;;;;4128399;28;20055;-79
2024/01/07 09:46:30;;;;;;;2.92;1.23;;;0.70;99.90;;;;;;4153726;28;20026;-79
2024/01/07 09:48:30;;;;;;;4.43;2.13;;;1.40;99.90;;;;;;4150180;28;20106;-80
2024/01/07 09:50:34;;;;;;;2.78;1.10;;;0.30;99.90;;;;;;4148218;28;20046;-79
2024/01/07 09:52:37;;;;;;;4.35;0.90;;;0.40;99.90;;;;;;4149078;28;20046;-79
2024/01/07 09:54:39;;;;;;;3.22;1.50;;;0.30;99.90;;;;;;4148933;28;20042;-80
2024/01/07 09:56:45;;;;;;;2.40;1.35;;;0.60;99.90;;;;;;4148277;28;20038;-80
2024/01/07 09:58:51;;;;;;;2.47;1.23;;;0.40;99.90;;;;;;4147433;28;20050;-81
2024/01/07 10:00:57;;;;;;;4.38;1.23;;;1.00;99.90;;;;;;4147001;28;20078;-80
2024/01/07 10:02:58;;;;;;;2.38;1.20;;;0.70;99.90;;;;;;4146620;28;20046;-79
2024/01/07 10:05:00;;;;;;;1.95;1.00;;;1.40;99.90;;;;;;4147273;28;20106;-81
2024/01/07 10:07:08;;;;;;;1.98;0.82;;;0.20;99.90;;;;;;4146719;28;20070;-79
2024/01/07 10:09:12;;;;;;;1.38;0.85;;;1.30;99.90;;;;;;4144466;28;20480;-79
2024/01/07 10:11:16;;;;;;;2.17;1.05;;;0.50;99.90;;;;;;4145306;28;20408;-79
2024/01/07 10:13:19;;;;;;;4.15;1.10;;;0.20;99.90;;;;;;4143135;28;20038;-82
2024/01/07 10:15:26;;;;;;;3.13;1.83;;;0.50;99.90;;;;;;4145505;28;20113;-81
2024/01/07 10:17:38;;;;;;;5.38;1.88;;;1.30;99.90;;;;;;4130275;28;20109;-81
2024/01/07 10:19:43;;;;;;;2.90;1.20;;;0.70;99.90;;;;;;4144902;28;20133;-79
2024/01/07 10:21:43;;;;;;;2.10;1.40;;;1.20;99.90;;;;;;4150793;28;20066;-80
2024/01/07 10:23:49;;;;;;;2.85;1.10;;;1.20;99.90;;;;;;4148832;28;20047;-80
2024/01/07 10:25:51;;;;;;;3.28;1.50;;;;;;;;;;4145630;28;20050;-80
2024/01/07 10:27:53;;;;;;;3.67;0.82;;;1.40;99.90;;;;;;4144910;28;20042;-80
2024/01/07 10:29:58;;;;;;;2.95;0.90;;;3.50;99.90;;;;;;4145964;28;20046;-81
2024/01/07 10:32:04;;;;;;;9.60;3.63;;;3.70;99.90;;;;;;4140441;28;20046;-81
2024/01/07 10:34:10;;;;;;;2.28;1.23;;;3.60;99.90;;;;;;4141342;28;20105;-80
2024/01/07 10:36:11;;;;;;;3.30;1.75;;;4.20;99.90;;;;;;4140802;28;20085;-81
2024/01/07 10:38:12;;;;;;;6.50;3.00;;;3.90;99.90;;;;;;4139415;28;20053;-81
2024/01/07 10:40:13;;;;;;;5.20;2.75;;;4.40;99.90;;;;;;4130288;28;20038;-81
2024/01/07 10:42:16;;;;;;;3.63;2.22;;;4.00;99.90;;;;;;4120302;28;20403;-81
2024/01/07 10:44:17;;;;;;;3.20;2.30;;;3.90;99.90;;;;;;4121789;28;20077;-81
2024/01/07 10:46:18;;;;;;;4.63;2.00;;;4.50;99.90;;;;;;4108444;28;20878;-81
2024/01/07 10:48:19;;;;;;;2.42;1.73;;;3.70;99.90;;;;;;4133790;28;20488;-81
2024/01/07 10:50:22;;;;;;;2.17;1.27;;;3.40;99.90;;;;;;4133974;28;20038;-81
2024/01/07 10:52:23;;;;;;;5.75;1.67;;;4.40;99.90;;;;;;4133763;28;20054;-81
2024/01/07 10:54:29;;;;;;;4.03;1.98;;;4.30;99.90;;;;;;4118786;28;20046;-81